sensor_id;sensor_type;location;lat;lon;timestamp;P1;durP1;ratioP1;P2;durP2;ratioP2
20449;SDS011;10384;51.940;8.432;2022-12-05T00:02:00;34.33;;;11.47;;
20449;SDS011;10384;51.940;8.432;2022-12-05T00:04:26;31.60;;;10.87;;
20449;SDS011;10384;51.940;8.432;2022-12-05T00:06:52;33.87;;;10.53;;
20449;SDS011;10384;51.940;8.432;2022-12-05T00:09:18;28.57;;;10.40;;
20449;SDS011;10384;51.940;8.432;2022-12-05T00:11:44;27.27;;;10.80;;
20449;SDS011;10384;51.940;8.432;2022-12-05T00:14:11;28.87;;;10.97;;
20449;SDS011;10384;51.940;8.432;2022-12-05T00:16:38;27.77;;;10.47;;
20449;SDS011;10384;51.940;8.432;2022-12-05T00:19:05;27.97;;;11.10;;
20449;SDS011;10384;51.940;8.432;2022-12-05T00:21:32;25.33;;;10.53;;
20449;SDS011;10384;51.940;8.432;2022-12-05T00:23:58;26.77;;;10.30;;
20449;SDS011;10384;51.940;8.432;2022-12-05T00:26:25;32.10;;;11.13;;
20449;SDS011;10384;51.940;8.432;2022-12-05T00:28:51;31.20;;;10.40;;
20449;SDS011;10384;51.940;8.432;2022-12-05T00:31:21;25.47;;;10.13;;
20449;SDS011;10384;51.940;8.432;2022-12-05T00:33:47;26.63;;;9.57;;
20449;SDS011;10384;51.940;8.432;2022-12-05T00:36:15;32.40;;;12.10;;
20449;SDS011;10384;51.940;8.432;2022-12-05T00:38:41;32.03;;;10.43;;
20449;SDS011;10384;51.940;8.432;2022-12-05T00:41:12;30.73;;;10.77;;
20449;SDS011;10384;51.940;8.432;2022-12-05T00:43:38;27.67;;;10.27;;
20449;SDS011;10384;51.940;8.432;2022-12-05T00:46:05;29.10;;;10.20;;
20449;SDS011;10384;51.940;8.432;2022-12-05T00:48:31;30.30;;;10.97;;
20449;SDS011;10384;51.940;8.432;2022-12-05T00:51:01;30.50;;;10.07;;
20449;SDS011;10384;51.940;8.432;2022-12-05T00:53:27;25.97;;;9.37;;
20449;SDS011;10384;51.940;8.432;2022-12-05T00:55:53;29.77;;;10.60;;
20449;SDS011;10384;51.940;8.432;2022-12-05T00:58:19;29.47;;;10.00;;
20449;SDS011;10384;51.940;8.432;2022-12-05T01:00:45;25.93;;;9.23;;
20449;SDS011;10384;51.940;8.432;2022-12-05T01:03:11;23.13;;;9.87;;
20449;SDS011;10384;51.940;8.432;2022-12-05T01:05:37;23.37;;;9.10;;
20449;SDS011;10384;51.940;8.432;2022-12-05T01:08:03;26.97;;;10.07;;
20449;SDS011;10384;51.940;8.432;2022-12-05T01:10:29;24.00;;;9.30;;
20449;SDS011;10384;51.940;8.432;2022-12-05T01:12:55;29.33;;;9.10;;
20449;SDS011;10384;51.940;8.432;2022-12-05T01:15:21;20.93;;;8.50;;
20449;SDS011;10384;51.940;8.432;2022-12-05T01:17:47;28.20;;;11.07;;
20449;SDS011;10384;51.940;8.432;2022-12-05T01:20:13;25.37;;;8.93;;
20449;SDS011;10384;51.940;8.432;2022-12-05T01:22:39;25.00;;;8.97;;
20449;SDS011;10384;51.940;8.432;2022-12-05T01:25:05;21.50;;;7.53;;
20449;SDS011;10384;51.940;8.432;2022-12-05T01:27:31;22.57;;;8.90;;
20449;SDS011;10384;51.940;8.432;2022-12-05T01:29:57;19.13;;;7.77;;
20449;SDS011;10384;51.940;8.432;2022-12-05T01:32:23;21.13;;;8.30;;
20449;SDS011;10384;51.940;8.432;2022-12-05T01:34:49;22.40;;;8.33;;
20449;SDS011;10384;51.940;8.432;2022-12-05T01:37:15;20.90;;;9.40;;
20449;SDS011;10384;51.940;8.432;2022-12-05T01:39:41;24.83;;;9.17;;
20449;SDS011;10384;51.940;8.432;2022-12-05T01:42:07;24.17;;;9.10;;
20449;SDS011;10384;51.940;8.432;2022-12-05T01:46:59;26.90;;;10.03;;
20449;SDS011;10384;51.940;8.432;2022-12-05T01:49:32;22.37;;;8.73;;
20449;SDS011;10384;51.940;8.432;2022-12-05T01:52:04;26.87;;;8.90;;
20449;SDS011;10384;51.940;8.432;2022-12-05T01:54:31;27.60;;;8.57;;
20449;SDS011;10384;51.940;8.432;2022-12-05T01:56:58;22.67;;;8.70;;
20449;SDS011;10384;51.940;8.432;2022-12-05T01:59:26;21.43;;;8.47;;
20449;SDS011;10384;51.940;8.432;2022-12-05T02:01:53;21.77;;;8.47;;
20449;SDS011;10384;51.940;8.432;2022-12-05T02:04:19;19.80;;;8.00;;
20449;SDS011;10384;51.940;8.432;2022-12-05T02:06:45;22.27;;;8.30;;
20449;SDS011;10384;51.940;8.432;2022-12-05T02:09:11;23.73;;;8.63;;
20449;SDS011;10384;51.940;8.432;2022-12-05T02:11:43;21.20;;;8.37;;
20449;SDS011;10384;51.940;8.432;2022-12-05T02:16:44;18.23;;;8.40;;
20449;SDS011;10384;51.940;8.432;2022-12-05T02:32:16;23.37;;;8.70;;
20449;SDS011;10384;51.940;8.432;2022-12-05T02:43:00;21.73;;;8.20;;
20449;SDS011;10384;51.940;8.432;2022-12-05T02:45:27;17.73;;;7.43;;
20449;SDS011;10384;51.940;8.432;2022-12-05T02:47:54;18.70;;;8.30;;
20449;SDS011;10384;51.940;8.432;2022-12-05T02:50:21;22.10;;;8.30;;
20449;SDS011;10384;51.940;8.432;2022-12-05T02:52:48;16.67;;;7.07;;
20449;SDS011;10384;51.940;8.432;2022-12-05T02:55:16;17.60;;;7.03;;
20449;SDS011;10384;51.940;8.432;2022-12-05T02:57:44;23.17;;;8.27;;
20449;SDS011;10384;51.940;8.432;2022-12-05T03:00:12;16.93;;;6.90;;
20449;SDS011;10384;51.940;8.432;2022-12-05T03:02:39;15.40;;;7.37;;
20449;SDS011;10384;51.940;8.432;2022-12-05T03:05:52;16.17;;;7.03;;
20449;SDS011;10384;51.940;8.432;2022-12-05T03:07:51;17.73;;;8.00;;
20449;SDS011;10384;51.940;8.432;2022-12-05T03:10:21;18.23;;;7.23;;
20449;SDS011;10384;51.940;8.432;2022-12-05T03:12:49;21.93;;;7.93;;
20449;SDS011;10384;51.940;8.432;2022-12-05T03:15:20;18.00;;;7.20;;
20449;SDS011;10384;51.940;8.432;2022-12-05T03:18:05;19.10;;;7.57;;
20449;SDS011;10384;51.940;8.432;2022-12-05T03:20:39;20.67;;;8.00;;
20449;SDS011;10384;51.940;8.432;2022-12-05T03:23:08;17.03;;;7.70;;
20449;SDS011;10384;51.940;8.432;2022-12-05T03:28:43;19.10;;;7.90;;
20449;SDS011;10384;51.940;8.432;2022-12-05T03:31:15;20.30;;;7.47;;
20449;SDS011;10384;51.940;8.432;2022-12-05T03:33:46;22.80;;;8.37;;
20449;SDS011;10384;51.940;8.432;2022-12-05T03:36:15;20.70;;;8.27;;
20449;SDS011;10384;51.940;8.432;2022-12-05T03:41:32;19.20;;;7.50;;
20449;SDS011;10384;51.940;8.432;2022-12-05T03:44:05;17.77;;;7.60;;
20449;SDS011;10384;51.940;8.432;2022-12-05T03:51:32;20.50;;;7.80;;
20449;SDS011;10384;51.940;8.432;2022-12-05T03:54:05;15.30;;;7.83;;
20449;SDS011;10384;51.940;8.432;2022-12-05T03:56:36;20.73;;;7.93;;
20449;SDS011;10384;51.940;8.432;2022-12-05T04:01:49;15.80;;;7.07;;
20449;SDS011;10384;51.940;8.432;2022-12-05T04:04:19;19.00;;;7.90;;
20449;SDS011;10384;51.940;8.432;2022-12-05T04:06:46;18.17;;;7.27;;
20449;SDS011;10384;51.940;8.432;2022-12-05T04:09:14;19.43;;;7.60;;
20449;SDS011;10384;51.940;8.432;2022-12-05T04:11:47;19.83;;;7.90;;
20449;SDS011;10384;51.940;8.432;2022-12-05T04:14:17;21.87;;;8.47;;
20449;SDS011;10384;51.940;8.432;2022-12-05T04:16:53;18.90;;;7.67;;
20449;SDS011;10384;51.940;8.432;2022-12-05T04:22:18;20.80;;;7.93;;
20449;SDS011;10384;51.940;8.432;2022-12-05T04:24:44;19.40;;;7.83;;
20449;SDS011;10384;51.940;8.432;2022-12-05T04:27:45;16.40;;;6.90;;
20449;SDS011;10384;51.940;8.432;2022-12-05T04:30:15;22.87;;;8.40;;
20449;SDS011;10384;51.940;8.432;2022-12-05T04:33:02;18.53;;;7.90;;
20449;SDS011;10384;51.940;8.432;2022-12-05T04:35:31;20.03;;;7.67;;
20449;SDS011;10384;51.940;8.432;2022-12-05T04:38:03;19.93;;;8.10;;
20449;SDS011;10384;51.940;8.432;2022-12-05T04:40:37;15.87;;;7.97;;
20449;SDS011;10384;51.940;8.432;2022-12-05T04:43:05;16.77;;;7.07;;
20449;SDS011;10384;51.940;8.432;2022-12-05T04:45:31;18.27;;;7.63;;
20449;SDS011;10384;51.940;8.432;2022-12-05T04:47:59;20.80;;;9.13;;
20449;SDS011;10384;51.940;8.432;2022-12-05T04:50:27;21.43;;;8.43;;
20449;SDS011;10384;51.940;8.432;2022-12-05T04:52:55;21.37;;;8.00;;
20449;SDS011;10384;51.940;8.432;2022-12-05T04:55:23;21.83;;;8.53;;
20449;SDS011;10384;51.940;8.432;2022-12-05T04:57:54;22.90;;;9.03;;
20449;SDS011;10384;51.940;8.432;2022-12-05T05:00:23;20.07;;;8.90;;
20449;SDS011;10384;51.940;8.432;2022-12-05T05:02:50;25.33;;;9.00;;
20449;SDS011;10384;51.940;8.432;2022-12-05T05:05:19;18.67;;;7.27;;
20449;SDS011;10384;51.940;8.432;2022-12-05T05:07:46;24.13;;;7.93;;
20449;SDS011;10384;51.940;8.432;2022-12-05T05:10:14;22.10;;;9.10;;
20449;SDS011;10384;51.940;8.432;2022-12-05T05:12:40;20.50;;;8.20;;
20449;SDS011;10384;51.940;8.432;2022-12-05T05:15:06;19.13;;;8.10;;
20449;SDS011;10384;51.940;8.432;2022-12-05T05:17:32;23.67;;;8.73;;
20449;SDS011;10384;51.940;8.432;2022-12-05T05:19:58;21.67;;;8.93;;
20449;SDS011;10384;51.940;8.432;2022-12-05T05:22:45;24.40;;;8.53;;
20449;SDS011;10384;51.940;8.432;2022-12-05T05:25:12;21.07;;;8.20;;
20449;SDS011;10384;51.940;8.432;2022-12-05T05:27:38;20.90;;;8.33;;
20449;SDS011;10384;51.940;8.432;2022-12-05T05:30:04;21.67;;;8.57;;
20449;SDS011;10384;51.940;8.432;2022-12-05T05:32:33;23.93;;;9.63;;
20449;SDS011;10384;51.940;8.432;2022-12-05T05:34:58;19.07;;;8.10;;
20449;SDS011;10384;51.940;8.432;2022-12-05T05:37:24;23.27;;;9.13;;
20449;SDS011;10384;51.940;8.432;2022-12-05T05:39:50;23.70;;;9.10;;
20449;SDS011;10384;51.940;8.432;2022-12-05T05:42:16;22.27;;;9.67;;
20449;SDS011;10384;51.940;8.432;2022-12-05T05:44:42;25.07;;;8.93;;
20449;SDS011;10384;51.940;8.432;2022-12-05T05:47:08;28.30;;;9.23;;
20449;SDS011;10384;51.940;8.432;2022-12-05T05:49:34;23.80;;;8.57;;
20449;SDS011;10384;51.940;8.432;2022-12-05T05:52:00;32.73;;;10.50;;
20449;SDS011;10384;51.940;8.432;2022-12-05T05:54:26;21.73;;;9.00;;
20449;SDS011;10384;51.940;8.432;2022-12-05T05:56:52;26.93;;;9.70;;
20449;SDS011;10384;51.940;8.432;2022-12-05T05:59:18;27.67;;;9.13;;
20449;SDS011;10384;51.940;8.432;2022-12-05T06:01:44;27.33;;;9.87;;
20449;SDS011;10384;51.940;8.432;2022-12-05T06:04:11;23.80;;;9.50;;
20449;SDS011;10384;51.940;8.432;2022-12-05T06:06:37;24.80;;;9.07;;
20449;SDS011;10384;51.940;8.432;2022-12-05T06:09:04;22.77;;;9.13;;
20449;SDS011;10384;51.940;8.432;2022-12-05T06:11:30;26.47;;;9.40;;
20449;SDS011;10384;51.940;8.432;2022-12-05T06:13:57;25.57;;;9.00;;
20449;SDS011;10384;51.940;8.432;2022-12-05T06:16:25;30.57;;;16.03;;
20449;SDS011;10384;51.940;8.432;2022-12-05T06:18:51;40.90;;;17.83;;
20449;SDS011;10384;51.940;8.432;2022-12-05T06:21:17;34.73;;;15.30;;
20449;SDS011;10384;51.940;8.432;2022-12-05T06:23:43;25.60;;;10.70;;
20449;SDS011;10384;51.940;8.432;2022-12-05T06:26:11;25.07;;;9.67;;
20449;SDS011;10384;51.940;8.432;2022-12-05T06:28:37;26.83;;;9.10;;
20449;SDS011;10384;51.940;8.432;2022-12-05T06:31:08;26.97;;;9.47;;
20449;SDS011;10384;51.940;8.432;2022-12-05T06:33:34;23.67;;;8.80;;
20449;SDS011;10384;51.940;8.432;2022-12-05T06:36:01;26.13;;;10.03;;
20449;SDS011;10384;51.940;8.432;2022-12-05T06:38:27;23.63;;;9.00;;
20449;SDS011;10384;51.940;8.432;2022-12-05T06:40:53;25.30;;;9.37;;
20449;SDS011;10384;51.940;8.432;2022-12-05T06:43:19;20.23;;;8.83;;
20449;SDS011;10384;51.940;8.432;2022-12-05T06:45:45;29.37;;;16.87;;
20449;SDS011;10384;51.940;8.432;2022-12-05T06:48:11;25.50;;;10.80;;
20449;SDS011;10384;51.940;8.432;2022-12-05T06:50:37;30.07;;;9.90;;
20449;SDS011;10384;51.940;8.432;2022-12-05T06:53:03;29.53;;;13.60;;
20449;SDS011;10384;51.940;8.432;2022-12-05T06:55:29;28.30;;;13.27;;
20449;SDS011;10384;51.940;8.432;2022-12-05T06:57:55;23.37;;;9.43;;
20449;SDS011;10384;51.940;8.432;2022-12-05T07:00:21;21.67;;;8.60;;
20449;SDS011;10384;51.940;8.432;2022-12-05T07:03:06;24.20;;;8.73;;
20449;SDS011;10384;51.940;8.432;2022-12-05T07:05:35;24.93;;;9.40;;
20449;SDS011;10384;51.940;8.432;2022-12-05T07:08:01;28.30;;;9.40;;
20449;SDS011;10384;51.940;8.432;2022-12-05T07:10:27;22.87;;;8.50;;
20449;SDS011;10384;51.940;8.432;2022-12-05T07:12:52;23.80;;;9.30;;
20449;SDS011;10384;51.940;8.432;2022-12-05T07:15:20;22.00;;;8.67;;
20449;SDS011;10384;51.940;8.432;2022-12-05T07:17:46;25.30;;;9.30;;
20449;SDS011;10384;51.940;8.432;2022-12-05T07:20:12;23.10;;;9.67;;
20449;SDS011;10384;51.940;8.432;2022-12-05T07:22:41;19.47;;;8.53;;
20449;SDS011;10384;51.940;8.432;2022-12-05T07:25:07;24.60;;;9.40;;
20449;SDS011;10384;51.940;8.432;2022-12-05T07:27:33;18.20;;;7.73;;
20449;SDS011;10384;51.940;8.432;2022-12-05T07:29:59;20.73;;;8.50;;
20449;SDS011;10384;51.940;8.432;2022-12-05T07:32:25;20.70;;;8.50;;
20449;SDS011;10384;51.940;8.432;2022-12-05T07:34:51;22.43;;;8.77;;
20449;SDS011;10384;51.940;8.432;2022-12-05T07:37:17;21.37;;;8.43;;
20449;SDS011;10384;51.940;8.432;2022-12-05T07:39:43;21.90;;;8.53;;
20449;SDS011;10384;51.940;8.432;2022-12-05T07:42:09;19.77;;;8.63;;
20449;SDS011;10384;51.940;8.432;2022-12-05T07:44:35;21.07;;;8.57;;
20449;SDS011;10384;51.940;8.432;2022-12-05T07:47:01;22.13;;;8.53;;
20449;SDS011;10384;51.940;8.432;2022-12-05T07:49:27;20.60;;;8.23;;
20449;SDS011;10384;51.940;8.432;2022-12-05T07:51:53;19.63;;;8.00;;
20449;SDS011;10384;51.940;8.432;2022-12-05T07:54:19;21.40;;;8.33;;
20449;SDS011;10384;51.940;8.432;2022-12-05T07:56:45;22.43;;;8.67;;
20449;SDS011;10384;51.940;8.432;2022-12-05T07:59:11;23.50;;;10.77;;
20449;SDS011;10384;51.940;8.432;2022-12-05T08:01:37;21.13;;;9.17;;
20449;SDS011;10384;51.940;8.432;2022-12-05T08:04:03;18.60;;;8.90;;
20449;SDS011;10384;51.940;8.432;2022-12-05T08:06:29;21.57;;;8.30;;
20449;SDS011;10384;51.940;8.432;2022-12-05T08:08:55;18.30;;;8.77;;
20449;SDS011;10384;51.940;8.432;2022-12-05T08:11:23;17.40;;;7.43;;
20449;SDS011;10384;51.940;8.432;2022-12-05T08:13:50;19.90;;;7.93;;
20449;SDS011;10384;51.940;8.432;2022-12-05T08:16:17;16.20;;;7.77;;
20449;SDS011;10384;51.940;8.432;2022-12-05T08:18:44;15.33;;;7.43;;
20449;SDS011;10384;51.940;8.432;2022-12-05T08:21:11;17.83;;;7.40;;
20449;SDS011;10384;51.940;8.432;2022-12-05T08:23:38;16.93;;;7.57;;
20449;SDS011;10384;51.940;8.432;2022-12-05T08:26:05;16.57;;;8.07;;
20449;SDS011;10384;51.940;8.432;2022-12-05T08:28:31;22.10;;;7.83;;
20449;SDS011;10384;51.940;8.432;2022-12-05T08:33:54;16.00;;;7.27;;
20449;SDS011;10384;51.940;8.432;2022-12-05T08:36:20;19.80;;;7.80;;
20449;SDS011;10384;51.940;8.432;2022-12-05T08:38:46;16.67;;;7.60;;
20449;SDS011;10384;51.940;8.432;2022-12-05T08:41:13;16.37;;;6.90;;
20449;SDS011;10384;51.940;8.432;2022-12-05T08:43:40;17.20;;;7.57;;
20449;SDS011;10384;51.940;8.432;2022-12-05T08:46:06;21.20;;;7.80;;
20449;SDS011;10384;51.940;8.432;2022-12-05T08:48:32;17.70;;;7.73;;
20449;SDS011;10384;51.940;8.432;2022-12-05T08:50:58;18.00;;;7.80;;
20449;SDS011;10384;51.940;8.432;2022-12-05T08:53:25;18.27;;;7.43;;
20449;SDS011;10384;51.940;8.432;2022-12-05T08:55:51;19.93;;;7.97;;
20449;SDS011;10384;51.940;8.432;2022-12-05T08:58:17;16.40;;;7.80;;
20449;SDS011;10384;51.940;8.432;2022-12-05T09:00:43;18.13;;;7.87;;
20449;SDS011;10384;51.940;8.432;2022-12-05T09:03:09;17.13;;;6.67;;
20449;SDS011;10384;51.940;8.432;2022-12-05T09:05:36;15.90;;;6.47;;
20449;SDS011;10384;51.940;8.432;2022-12-05T09:08:02;14.63;;;6.30;;
20449;SDS011;10384;51.940;8.432;2022-12-05T09:10:28;14.97;;;6.83;;
20449;SDS011;10384;51.940;8.432;2022-12-05T09:12:54;14.87;;;6.30;;
20449;SDS011;10384;51.940;8.432;2022-12-05T09:15:20;14.70;;;6.60;;
20449;SDS011;10384;51.940;8.432;2022-12-05T09:17:46;11.83;;;5.80;;
20449;SDS011;10384;51.940;8.432;2022-12-05T09:20:12;12.97;;;5.67;;
20449;SDS011;10384;51.940;8.432;2022-12-05T09:22:38;13.67;;;6.40;;
20449;SDS011;10384;51.940;8.432;2022-12-05T09:25:05;16.47;;;6.07;;
20449;SDS011;10384;51.940;8.432;2022-12-05T09:27:31;12.83;;;6.13;;
20449;SDS011;10384;51.940;8.432;2022-12-05T09:29:57;14.67;;;5.67;;
20449;SDS011;10384;51.940;8.432;2022-12-05T09:32:23;12.40;;;6.33;;
20449;SDS011;10384;51.940;8.432;2022-12-05T09:34:49;10.93;;;5.47;;
20449;SDS011;10384;51.940;8.432;2022-12-05T09:37:15;13.17;;;5.37;;
20449;SDS011;10384;51.940;8.432;2022-12-05T09:39:45;15.40;;;5.40;;
20449;SDS011;10384;51.940;8.432;2022-12-05T09:44:53;10.80;;;5.57;;
20449;SDS011;10384;51.940;8.432;2022-12-05T09:49:57;11.70;;;5.10;;
20449;SDS011;10384;51.940;8.432;2022-12-05T09:52:27;12.17;;;5.50;;
20449;SDS011;10384;51.940;8.432;2022-12-05T09:54:54;12.43;;;5.80;;
20449;SDS011;10384;51.940;8.432;2022-12-05T09:57:44;10.13;;;5.57;;
20449;SDS011;10384;51.940;8.432;2022-12-05T10:00:08;12.60;;;5.70;;
20449;SDS011;10384;51.940;8.432;2022-12-05T10:05:12;9.93;;;5.17;;
20449;SDS011;10384;51.940;8.432;2022-12-05T10:07:52;12.53;;;5.63;;
20449;SDS011;10384;51.940;8.432;2022-12-05T10:15:33;15.07;;;6.07;;
20449;SDS011;10384;51.940;8.432;2022-12-05T10:18:01;13.23;;;5.67;;
20449;SDS011;10384;51.940;8.432;2022-12-05T10:20:29;11.07;;;6.50;;
20449;SDS011;10384;51.940;8.432;2022-12-05T10:23:03;14.93;;;5.67;;
20449;SDS011;10384;51.940;8.432;2022-12-05T10:25:30;16.63;;;8.10;;
20449;SDS011;10384;51.940;8.432;2022-12-05T10:27:58;16.50;;;7.70;;
20449;SDS011;10384;51.940;8.432;2022-12-05T10:30:31;15.60;;;7.10;;
20449;SDS011;10384;51.940;8.432;2022-12-05T10:33:00;16.97;;;7.47;;
20449;SDS011;10384;51.940;8.432;2022-12-05T10:37:57;14.83;;;7.23;;
20449;SDS011;10384;51.940;8.432;2022-12-05T10:40:26;14.77;;;7.00;;
20449;SDS011;10384;51.940;8.432;2022-12-05T10:42:57;16.53;;;7.40;;
20449;SDS011;10384;51.940;8.432;2022-12-05T10:45:23;14.07;;;7.10;;
20449;SDS011;10384;51.940;8.432;2022-12-05T10:47:53;14.90;;;7.60;;
20449;SDS011;10384;51.940;8.432;2022-12-05T10:52:45;14.57;;;6.90;;
20449;SDS011;10384;51.940;8.432;2022-12-05T10:55:13;16.30;;;7.63;;
20449;SDS011;10384;51.940;8.432;2022-12-05T10:57:40;15.57;;;7.23;;
20449;SDS011;10384;51.940;8.432;2022-12-05T11:00:11;14.73;;;6.97;;
20449;SDS011;10384;51.940;8.432;2022-12-05T11:02:38;17.87;;;7.53;;
20449;SDS011;10384;51.940;8.432;2022-12-05T11:05:05;13.77;;;6.80;;
20449;SDS011;10384;51.940;8.432;2022-12-05T11:07:32;13.80;;;6.97;;
20449;SDS011;10384;51.940;8.432;2022-12-05T11:09:58;13.93;;;7.37;;
20449;SDS011;10384;51.940;8.432;2022-12-05T11:12:43;14.37;;;6.40;;
20449;SDS011;10384;51.940;8.432;2022-12-05T11:17:46;14.07;;;6.17;;
20449;SDS011;10384;51.940;8.432;2022-12-05T11:22:45;11.63;;;5.63;;
20449;SDS011;10384;51.940;8.432;2022-12-05T11:25:24;11.30;;;5.60;;
20449;SDS011;10384;51.940;8.432;2022-12-05T11:27:51;10.93;;;5.27;;
20449;SDS011;10384;51.940;8.432;2022-12-05T11:30:17;13.00;;;5.77;;
20449;SDS011;10384;51.940;8.432;2022-12-05T11:32:44;11.33;;;6.00;;
20449;SDS011;10384;51.940;8.432;2022-12-05T11:37:42;11.47;;;5.80;;
20449;SDS011;10384;51.940;8.432;2022-12-05T11:40:16;11.53;;;5.67;;
20449;SDS011;10384;51.940;8.432;2022-12-05T11:42:59;12.13;;;5.40;;
20449;SDS011;10384;51.940;8.432;2022-12-05T11:53:05;11.17;;;6.00;;
20449;SDS011;10384;51.940;8.432;2022-12-05T11:55:42;16.43;;;7.53;;
20449;SDS011;10384;51.940;8.432;2022-12-05T11:58:16;15.57;;;7.07;;
20449;SDS011;10384;51.940;8.432;2022-12-05T12:01:02;14.17;;;6.90;;
20449;SDS011;10384;51.940;8.432;2022-12-05T12:06:32;12.63;;;6.77;;
20449;SDS011;10384;51.940;8.432;2022-12-05T12:14:34;14.17;;;6.30;;
20449;SDS011;10384;51.940;8.432;2022-12-05T12:22:37;14.17;;;7.03;;
20449;SDS011;10384;51.940;8.432;2022-12-05T12:27:55;14.37;;;6.37;;
20449;SDS011;10384;51.940;8.432;2022-12-05T12:35:40;12.40;;;6.43;;
20449;SDS011;10384;51.940;8.432;2022-12-05T12:40:53;14.93;;;6.33;;
20449;SDS011;10384;51.940;8.432;2022-12-05T12:51:06;11.03;;;6.00;;
20449;SDS011;10384;51.940;8.432;2022-12-05T12:53:39;11.23;;;5.63;;
20449;SDS011;10384;51.940;8.432;2022-12-05T13:01:39;9.00;;;5.17;;
20449;SDS011;10384;51.940;8.432;2022-12-05T13:04:11;8.37;;;4.70;;
20449;SDS011;10384;51.940;8.432;2022-12-05T13:06:43;9.93;;;5.07;;
20449;SDS011;10384;51.940;8.432;2022-12-05T13:11:38;11.83;;;5.30;;
20449;SDS011;10384;51.940;8.432;2022-12-05T13:14:10;8.63;;;5.00;;
20449;SDS011;10384;51.940;8.432;2022-12-05T13:16:38;12.20;;;5.20;;
20449;SDS011;10384;51.940;8.432;2022-12-05T13:19:05;13.27;;;6.00;;
20449;SDS011;10384;51.940;8.432;2022-12-05T13:21:31;11.53;;;5.70;;
20449;SDS011;10384;51.940;8.432;2022-12-05T13:23:58;10.40;;;5.60;;
20449;SDS011;10384;51.940;8.432;2022-12-05T13:26:27;10.60;;;5.67;;
20449;SDS011;10384;51.940;8.432;2022-12-05T13:28:54;13.63;;;6.50;;
20449;SDS011;10384;51.940;8.432;2022-12-05T13:31:34;18.80;;;7.63;;
20449;SDS011;10384;51.940;8.432;2022-12-05T13:34:01;19.67;;;7.57;;
20449;SDS011;10384;51.940;8.432;2022-12-05T13:36:26;15.27;;;7.10;;
20449;SDS011;10384;51.940;8.432;2022-12-05T13:41:56;12.57;;;6.43;;
20449;SDS011;10384;51.940;8.432;2022-12-05T13:44:41;11.40;;;5.43;;
20449;SDS011;10384;51.940;8.432;2022-12-05T13:47:28;12.30;;;6.17;;
20449;SDS011;10384;51.940;8.432;2022-12-05T13:50:09;16.33;;;5.77;;
20449;SDS011;10384;51.940;8.432;2022-12-05T13:52:49;15.23;;;5.63;;
20449;SDS011;10384;51.940;8.432;2022-12-05T13:55:19;11.63;;;5.93;;
20449;SDS011;10384;51.940;8.432;2022-12-05T13:57:51;11.00;;;5.63;;
20449;SDS011;10384;51.940;8.432;2022-12-05T14:00:21;13.10;;;5.90;;
20449;SDS011;10384;51.940;8.432;2022-12-05T14:02:48;16.73;;;6.33;;
20449;SDS011;10384;51.940;8.432;2022-12-05T14:07:48;12.80;;;5.77;;
20449;SDS011;10384;51.940;8.432;2022-12-05T14:10:15;12.83;;;5.67;;
20449;SDS011;10384;51.940;8.432;2022-12-05T14:12:52;13.87;;;5.63;;
20449;SDS011;10384;51.940;8.432;2022-12-05T14:15:25;11.17;;;5.43;;
20449;SDS011;10384;51.940;8.432;2022-12-05T14:17:55;13.33;;;5.37;;
20449;SDS011;10384;51.940;8.432;2022-12-05T14:28:37;12.23;;;5.67;;
20449;SDS011;10384;51.940;8.432;2022-12-05T14:33:33;14.20;;;5.43;;
20449;SDS011;10384;51.940;8.432;2022-12-05T14:36:04;10.10;;;5.53;;
20449;SDS011;10384;51.940;8.432;2022-12-05T14:38:31;10.50;;;5.93;;
20449;SDS011;10384;51.940;8.432;2022-12-05T14:41:11;9.93;;;5.40;;
20449;SDS011;10384;51.940;8.432;2022-12-05T14:43:38;13.03;;;5.67;;
20449;SDS011;10384;51.940;8.432;2022-12-05T14:46:15;14.87;;;5.77;;
20449;SDS011;10384;51.940;8.432;2022-12-05T14:48:46;8.37;;;5.17;;
20449;SDS011;10384;51.940;8.432;2022-12-05T14:54:05;9.33;;;5.13;;
20449;SDS011;10384;51.940;8.432;2022-12-05T14:56:37;13.07;;;6.13;;
20449;SDS011;10384;51.940;8.432;2022-12-05T14:59:19;14.87;;;6.70;;
20449;SDS011;10384;51.940;8.432;2022-12-05T15:01:54;13.27;;;6.23;;
20449;SDS011;10384;51.940;8.432;2022-12-05T15:06:54;12.33;;;6.30;;
20449;SDS011;10384;51.940;8.432;2022-12-05T15:09:28;13.63;;;6.13;;
20449;SDS011;10384;51.940;8.432;2022-12-05T15:11:57;13.93;;;6.50;;
20449;SDS011;10384;51.940;8.432;2022-12-05T15:14:24;12.17;;;5.93;;
20449;SDS011;10384;51.940;8.432;2022-12-05T15:16:53;13.63;;;6.40;;
20449;SDS011;10384;51.940;8.432;2022-12-05T15:19:24;14.27;;;7.10;;
20449;SDS011;10384;51.940;8.432;2022-12-05T15:21:59;13.33;;;6.17;;
20449;SDS011;10384;51.940;8.432;2022-12-05T15:24:26;14.10;;;6.20;;
20449;SDS011;10384;51.940;8.432;2022-12-05T15:26:53;10.97;;;5.90;;
20449;SDS011;10384;51.940;8.432;2022-12-05T15:31:48;13.73;;;6.97;;
20449;SDS011;10384;51.940;8.432;2022-12-05T15:34:19;13.83;;;6.83;;
20449;SDS011;10384;51.940;8.432;2022-12-05T15:36:51;13.90;;;6.90;;
20449;SDS011;10384;51.940;8.432;2022-12-05T15:39:21;15.80;;;7.70;;
20449;SDS011;10384;51.940;8.432;2022-12-05T15:41:49;14.67;;;6.83;;
20449;SDS011;10384;51.940;8.432;2022-12-05T15:44:16;17.27;;;7.03;;
20449;SDS011;10384;51.940;8.432;2022-12-05T15:46:43;13.60;;;6.40;;
20449;SDS011;10384;51.940;8.432;2022-12-05T15:49:16;15.43;;;7.10;;
20449;SDS011;10384;51.940;8.432;2022-12-05T15:51:45;12.97;;;6.20;;
20449;SDS011;10384;51.940;8.432;2022-12-05T15:54:16;18.10;;;9.30;;
20449;SDS011;10384;51.940;8.432;2022-12-05T15:59:11;10.57;;;6.17;;
20449;SDS011;10384;51.940;8.432;2022-12-05T16:01:40;10.87;;;5.93;;
20449;SDS011;10384;51.940;8.432;2022-12-05T16:04:23;10.73;;;5.83;;
20449;SDS011;10384;51.940;8.432;2022-12-05T16:06:51;14.63;;;7.47;;
20449;SDS011;10384;51.940;8.432;2022-12-05T16:09:20;10.10;;;6.23;;
20449;SDS011;10384;51.940;8.432;2022-12-05T16:11:56;11.33;;;6.47;;
20449;SDS011;10384;51.940;8.432;2022-12-05T16:14:24;10.40;;;5.90;;
20449;SDS011;10384;51.940;8.432;2022-12-05T16:16:51;12.40;;;7.00;;
20449;SDS011;10384;51.940;8.432;2022-12-05T16:19:23;12.00;;;6.03;;
20449;SDS011;10384;51.940;8.432;2022-12-05T16:22:00;15.70;;;7.70;;
20449;SDS011;10384;51.940;8.432;2022-12-05T16:24:29;17.80;;;7.87;;
20449;SDS011;10384;51.940;8.432;2022-12-05T16:29:30;17.20;;;8.03;;
20449;SDS011;10384;51.940;8.432;2022-12-05T16:31:58;19.23;;;8.93;;
20449;SDS011;10384;51.940;8.432;2022-12-05T16:34:24;17.83;;;7.93;;
20449;SDS011;10384;51.940;8.432;2022-12-05T16:36:52;19.70;;;8.97;;
20449;SDS011;10384;51.940;8.432;2022-12-05T16:39:18;21.20;;;9.90;;
20449;SDS011;10384;51.940;8.432;2022-12-05T16:41:45;18.37;;;9.30;;
20449;SDS011;10384;51.940;8.432;2022-12-05T16:45:14;20.63;;;8.87;;
20449;SDS011;10384;51.940;8.432;2022-12-05T16:47:06;21.90;;;9.43;;
20449;SDS011;10384;51.940;8.432;2022-12-05T16:49:42;16.17;;;8.23;;
20449;SDS011;10384;51.940;8.432;2022-12-05T16:52:11;18.10;;;8.30;;
20449;SDS011;10384;51.940;8.432;2022-12-05T16:54:38;16.60;;;7.97;;
20449;SDS011;10384;51.940;8.432;2022-12-05T16:57:04;18.73;;;8.40;;
20449;SDS011;10384;51.940;8.432;2022-12-05T17:01:56;17.87;;;8.53;;
20449;SDS011;10384;51.940;8.432;2022-12-05T17:04:22;19.07;;;9.63;;
20449;SDS011;10384;51.940;8.432;2022-12-05T17:06:49;17.00;;;9.23;;
20449;SDS011;10384;51.940;8.432;2022-12-05T17:09:15;16.77;;;8.67;;
20449;SDS011;10384;51.940;8.432;2022-12-05T17:11:41;13.90;;;7.20;;
20449;SDS011;10384;51.940;8.432;2022-12-05T17:14:10;14.90;;;7.57;;